createdAt,value
2022-07-26T00:00:47.310Z,999.79
2022-07-26T00:01:47.381Z,999.81
2022-07-26T00:02:47.661Z,999.84
2022-07-26T00:03:47.178Z,999.81
2022-07-26T00:04:47.190Z,999.81
2022-07-26T00:05:47.181Z,999.82
2022-07-26T00:06:47.138Z,999.81
2022-07-26T00:07:47.123Z,999.85
2022-07-26T00:08:47.110Z,999.84
2022-07-26T00:09:48.484Z,999.84
2022-07-26T00:10:47.106Z,999.85
2022-07-26T00:11:48.041Z,999.85
2022-07-26T00:12:47.055Z,999.87
2022-07-26T00:13:47.038Z,999.82
2022-07-26T00:14:47.083Z,999.78
2022-07-26T00:15:47.056Z,999.79
2022-07-26T00:16:47.570Z,999.81
2022-07-26T00:17:46.988Z,999.78
2022-07-26T00:18:46.971Z,999.77
2022-07-26T00:19:46.980Z,999.76
2022-07-26T00:20:46.969Z,999.73
2022-07-26T00:21:47.526Z,999.75
2022-07-26T00:22:46.918Z,999.73
2022-07-26T00:23:46.902Z,999.72
2022-07-26T00:24:46.896Z,999.71
2022-07-26T00:25:46.912Z,999.70
2022-07-26T00:26:47.546Z,999.73
2022-07-26T00:27:46.843Z,999.73
2022-07-26T00:28:46.835Z,999.74
2022-07-26T00:29:46.838Z,999.69
2022-07-26T00:30:46.821Z,999.70
2022-07-26T00:31:46.875Z,999.70
2022-07-26T00:32:46.781Z,999.75
2022-07-26T00:33:46.768Z,999.75
2022-07-26T00:34:46.769Z,999.69
2022-07-26T00:35:46.763Z,999.68
2022-07-26T00:36:46.727Z,999.62
2022-07-26T00:37:46.720Z,999.63
2022-07-26T00:38:46.705Z,999.64
2022-07-26T00:39:46.693Z,999.63
2022-07-26T00:40:46.718Z,999.65
2022-07-26T00:41:46.700Z,999.68
2022-07-26T00:42:46.649Z,999.64
2022-07-26T00:43:46.634Z,999.57
2022-07-26T00:44:46.635Z,999.59
2022-07-26T00:45:46.694Z,999.55
2022-07-26T00:46:46.591Z,999.63
2022-07-26T00:47:46.603Z,999.63
2022-07-26T00:48:46.627Z,999.61
2022-07-26T00:49:46.566Z,999.62
2022-07-26T00:50:46.571Z,999.58
2022-07-26T00:51:46.717Z,999.59
2022-07-26T00:52:46.546Z,999.55
2022-07-26T00:53:46.498Z,999.54
2022-07-26T00:54:46.498Z,999.57
2022-07-26T00:55:46.497Z,999.53
2022-07-26T00:56:46.457Z,999.48
2022-07-26T00:57:46.465Z,999.50
2022-07-26T00:58:46.424Z,999.46
2022-07-26T00:59:46.429Z,999.46
2022-07-26T01:00:46.468Z,999.43
2022-07-26T01:01:46.590Z,999.44
2022-07-26T01:02:46.419Z,999.42
2022-07-26T01:03:46.358Z,999.42
2022-07-26T01:04:46.360Z,999.42
2022-07-26T01:05:46.360Z,999.39
2022-07-26T01:06:46.321Z,999.42
2022-07-26T01:07:46.362Z,999.38
2022-07-26T01:08:46.295Z,999.39
2022-07-26T01:09:46.301Z,999.39
2022-07-26T01:10:46.290Z,999.34
2022-07-26T01:11:46.289Z,999.42
2022-07-26T01:12:46.254Z,999.43
2022-07-26T01:13:46.242Z,999.40
2022-07-26T01:14:46.224Z,999.37
2022-07-26T01:15:46.271Z,999.40
2022-07-26T01:16:46.222Z,999.38
2022-07-26T01:17:47.064Z,999.37
2022-07-26T01:18:46.180Z,999.34
2022-07-26T01:19:46.158Z,999.27
2022-07-26T01:20:46.169Z,999.31
2022-07-26T01:21:46.157Z,999.32
2022-07-26T01:22:46.129Z,999.31
2022-07-26T01:23:46.096Z,999.32
2022-07-26T01:24:46.090Z,999.31
2022-07-26T01:25:46.091Z,999.30
2022-07-26T01:26:46.073Z,999.29
2022-07-26T01:27:46.598Z,999.29
2022-07-26T01:28:46.023Z,999.28
2022-07-26T01:29:46.019Z,999.27
2022-07-26T01:30:46.012Z,999.28
2022-07-26T01:31:46.044Z,999.27
2022-07-26T01:32:46.561Z,999.26
2022-07-26T01:33:45.972Z,999.27
2022-07-26T01:34:45.955Z,999.26
2022-07-26T01:35:45.956Z,999.26
2022-07-26T01:36:45.958Z,999.26
2022-07-26T01:37:46.569Z,999.28
2022-07-26T01:38:45.904Z,999.31
2022-07-26T01:39:45.884Z,999.29
2022-07-26T01:40:45.891Z,999.32
2022-07-26T01:41:45.888Z,999.28
2022-07-26T01:42:46.567Z,999.28
2022-07-26T01:43:45.837Z,999.26
2022-07-26T01:44:45.816Z,999.25
2022-07-26T01:45:45.929Z,999.20
2022-07-26T01:46:45.804Z,999.22
2022-07-26T01:47:46.581Z,999.19
2022-07-26T01:48:45.800Z,999.24
2022-07-26T01:49:45.747Z,999.22
2022-07-26T01:50:45.748Z,999.23
2022-07-26T01:51:45.749Z,999.19
2022-07-26T01:52:46.585Z,999.21
2022-07-26T01:53:45.708Z,999.20
2022-07-26T01:54:45.680Z,999.23
2022-07-26T01:55:45.685Z,999.20
2022-07-26T01:56:45.687Z,999.20
2022-07-26T01:57:45.644Z,999.16
2022-07-26T01:58:45.629Z,999.14
2022-07-26T01:59:45.613Z,999.13
2022-07-26T02:00:45.613Z,999.15
2022-07-26T02:01:45.649Z,999.13
2022-07-26T02:02:48.242Z,999.16
2022-07-26T02:03:45.562Z,999.19
2022-07-26T02:04:45.549Z,999.18
2022-07-26T02:05:45.543Z,999.21
2022-07-26T02:06:45.553Z,999.17
2022-07-26T02:07:45.506Z,999.17
2022-07-26T02:08:45.495Z,999.19
2022-07-26T02:09:45.473Z,999.18
2022-07-26T02:10:45.462Z,999.18
2022-07-26T02:11:45.486Z,999.17
2022-07-26T02:12:46.093Z,999.14
2022-07-26T02:13:47.829Z,999.14
2022-07-26T02:14:45.403Z,999.11
2022-07-26T02:15:45.494Z,999.12
2022-07-26T02:16:45.410Z,999.11
2022-07-26T02:17:45.368Z,999.10
2022-07-26T02:18:45.357Z,999.07
2022-07-26T02:19:45.339Z,999.04
2022-07-26T02:20:45.326Z,999.08
2022-07-26T02:21:45.346Z,999.06
2022-07-26T02:22:45.306Z,999.05
2022-07-26T02:23:45.288Z,999.06
2022-07-26T02:24:45.271Z,999.03
2022-07-26T02:25:45.274Z,999.04
2022-07-26T02:26:45.273Z,998.99
2022-07-26T02:27:45.237Z,998.95
2022-07-26T02:28:45.220Z,998.92
2022-07-26T02:29:45.200Z,998.93
2022-07-26T02:30:45.280Z,998.93
2022-07-26T02:31:48.534Z,998.96
2022-07-26T02:32:45.167Z,998.95
2022-07-26T02:33:45.166Z,998.94
2022-07-26T02:34:45.139Z,998.92
2022-07-26T02:35:45.133Z,998.92
2022-07-26T02:36:45.147Z,998.86
2022-07-26T02:37:45.097Z,998.86
2022-07-26T02:38:45.087Z,998.82
2022-07-26T02:39:45.064Z,998.85
2022-07-26T02:40:45.072Z,998.84
2022-07-26T02:41:45.065Z,998.86
2022-07-26T02:42:45.029Z,998.88
2022-07-26T02:43:45.017Z,998.82
2022-07-26T02:44:45.005Z,998.79
2022-07-26T02:45:45.001Z,998.78
2022-07-26T02:46:45.034Z,998.73
2022-07-26T02:47:44.964Z,998.75
2022-07-26T02:48:44.979Z,998.72
2022-07-26T02:49:44.933Z,998.76
2022-07-26T02:50:44.931Z,998.77
2022-07-26T02:51:44.936Z,998.75
2022-07-26T02:52:44.918Z,998.72
2022-07-26T02:53:44.885Z,998.71
2022-07-26T02:54:44.861Z,998.69
2022-07-26T02:55:44.863Z,998.71
2022-07-26T02:56:44.870Z,998.69
2022-07-26T02:57:46.244Z,998.71
2022-07-26T02:58:44.810Z,998.69
2022-07-26T02:59:44.799Z,998.67
2022-07-26T03:00:44.796Z,998.65
2022-07-26T03:01:44.841Z,998.65
2022-07-26T03:02:44.815Z,998.64
2022-07-26T03:03:48.711Z,998.58
2022-07-26T03:04:44.725Z,998.65
2022-07-26T03:05:44.725Z,998.63
2022-07-26T03:06:44.737Z,998.61
2022-07-26T03:07:44.685Z,998.53
2022-07-26T03:08:44.675Z,998.51
2022-07-26T03:09:44.656Z,998.57
2022-07-26T03:10:44.657Z,998.56
2022-07-26T03:11:44.654Z,998.55
2022-07-26T03:12:44.621Z,998.55
2022-07-26T03:13:44.615Z,998.56
2022-07-26T03:14:44.589Z,998.51
2022-07-26T03:15:44.665Z,998.49
2022-07-26T03:16:44.574Z,998.48
2022-07-26T03:17:44.555Z,998.50
2022-07-26T03:18:44.547Z,998.47
2022-07-26T03:19:44.518Z,998.46
2022-07-26T03:20:44.530Z,998.49
2022-07-26T03:21:44.514Z,998.48
2022-07-26T03:22:44.478Z,998.46
2022-07-26T03:23:44.467Z,998.47
2022-07-26T03:24:44.448Z,998.46
2022-07-26T03:25:44.453Z,998.49
2022-07-26T03:26:44.464Z,998.44
2022-07-26T03:27:44.417Z,998.43
2022-07-26T03:28:44.412Z,998.45
2022-07-26T03:29:44.384Z,998.42
2022-07-26T03:30:44.405Z,998.39
2022-07-26T03:31:44.388Z,998.37
2022-07-26T03:32:44.344Z,998.37
2022-07-26T03:33:44.347Z,998.42
2022-07-26T03:34:44.312Z,998.36
2022-07-26T03:35:44.737Z,998.41
2022-07-26T03:36:44.306Z,998.41
2022-07-26T03:37:45.909Z,998.44
2022-07-26T03:38:44.268Z,998.39
2022-07-26T03:39:44.248Z,998.40
2022-07-26T03:40:44.245Z,998.34
2022-07-26T03:41:44.249Z,998.36
2022-07-26T03:42:44.267Z,998.35
2022-07-26T03:43:44.198Z,998.38
2022-07-26T03:44:44.182Z,998.38
2022-07-26T03:45:44.198Z,998.36
2022-07-26T03:46:44.258Z,998.44
2022-07-26T03:47:44.137Z,998.41
2022-07-26T03:48:44.176Z,998.36
2022-07-26T03:49:44.108Z,998.40
2022-07-26T03:50:44.109Z,998.38
2022-07-26T03:51:44.106Z,998.37
2022-07-26T03:52:44.067Z,998.36
2022-07-26T03:53:44.065Z,998.36
2022-07-26T03:54:44.040Z,998.35
2022-07-26T03:55:44.041Z,998.34
2022-07-26T03:56:44.045Z,998.36
2022-07-26T03:57:44.054Z,998.31
2022-07-26T03:58:43.995Z,998.31
2022-07-26T03:59:43.965Z,998.33
2022-07-26T04:00:43.977Z,998.30
2022-07-26T04:01:44.064Z,998.30
2022-07-26T04:02:43.979Z,998.31
2022-07-26T04:03:47.611Z,998.29
2022-07-26T04:04:43.908Z,998.21
2022-07-26T04:05:48.614Z,998.19
2022-07-26T04:06:43.907Z,998.20
2022-07-26T04:07:43.860Z,998.23
2022-07-26T04:08:43.860Z,998.23
2022-07-26T04:09:43.830Z,998.20
2022-07-26T04:10:43.820Z,998.14
2022-07-26T04:11:43.838Z,998.18
2022-07-26T04:12:43.796Z,998.15
2022-07-26T04:13:43.790Z,998.10
2022-07-26T04:14:43.762Z,998.17
2022-07-26T04:15:43.766Z,998.13
2022-07-26T04:16:44.101Z,998.12
2022-07-26T04:17:43.724Z,998.11
2022-07-26T04:18:43.825Z,998.11
2022-07-26T04:19:43.698Z,998.10
2022-07-26T04:20:43.699Z,998.05
2022-07-26T04:21:43.699Z,998.08
2022-07-26T04:22:43.661Z,998.02
2022-07-26T04:23:47.772Z,998.03
2022-07-26T04:24:43.629Z,998.01
2022-07-26T04:25:43.629Z,998.03
2022-07-26T04:26:43.645Z,997.99
2022-07-26T04:27:43.593Z,998.03
2022-07-26T04:28:43.591Z,997.99
2022-07-26T04:29:43.565Z,997.94
2022-07-26T04:30:43.614Z,997.93
2022-07-26T04:31:43.580Z,997.96
2022-07-26T04:32:43.522Z,997.90
2022-07-26T04:33:43.522Z,997.91
2022-07-26T04:34:43.498Z,997.81
2022-07-26T04:35:43.494Z,997.80
2022-07-26T04:36:43.499Z,997.75
2022-07-26T04:37:43.483Z,997.73
2022-07-26T04:38:46.177Z,997.71
2022-07-26T04:39:43.426Z,997.70
2022-07-26T04:40:43.422Z,997.66
2022-07-26T04:41:43.429Z,997.55
2022-07-26T04:42:43.427Z,997.53
2022-07-26T04:43:43.386Z,997.45
2022-07-26T04:44:43.366Z,997.47
2022-07-26T04:45:43.401Z,997.50
2022-07-26T04:46:45.191Z,997.46
2022-07-26T04:47:43.370Z,997.42
2022-07-26T04:48:43.417Z,997.47
2022-07-26T04:49:43.296Z,997.45
2022-07-26T04:50:43.289Z,997.46
2022-07-26T04:51:43.294Z,997.46
2022-07-26T04:52:43.303Z,997.48
2022-07-26T04:53:44.178Z,997.40
2022-07-26T04:54:43.311Z,997.43
2022-07-26T04:55:43.226Z,997.43
2022-07-26T04:56:43.210Z,997.46
2022-07-26T04:57:43.211Z,997.44
2022-07-26T04:58:43.218Z,997.45
2022-07-26T04:59:43.164Z,997.47
2022-07-26T05:01:03.228Z,997.48
2022-07-26T05:01:43.268Z,997.41
2022-07-26T05:02:43.177Z,997.44
2022-07-26T05:03:43.120Z,997.42
2022-07-26T05:04:43.096Z,997.42
2022-07-26T05:05:43.088Z,997.35
2022-07-26T05:06:43.087Z,997.37
2022-07-26T05:07:43.088Z,997.42
2022-07-26T05:08:43.094Z,997.41
2022-07-26T05:09:43.098Z,997.39
2022-07-26T05:10:44.983Z,997.33
2022-07-26T05:11:43.019Z,997.35
2022-07-26T05:12:43.034Z,997.44
2022-07-26T05:13:43.028Z,997.39
2022-07-26T05:14:42.986Z,997.46
2022-07-26T05:15:43.007Z,997.45
2022-07-26T05:16:44.304Z,997.41
2022-07-26T05:17:43.201Z,997.36
2022-07-26T05:18:46.020Z,997.35
2022-07-26T05:19:47.456Z,997.33
2022-07-26T05:20:42.925Z,997.29
2022-07-26T05:21:42.898Z,997.30
2022-07-26T05:22:42.907Z,997.29
2022-07-26T05:23:42.907Z,997.25
2022-07-26T05:24:42.884Z,997.31
2022-07-26T05:25:43.713Z,997.31
2022-07-26T05:26:42.836Z,997.31
2022-07-26T05:27:42.824Z,997.34
2022-07-26T05:28:42.827Z,997.35
2022-07-26T05:29:42.815Z,997.32
2022-07-26T05:30:42.836Z,997.34
2022-07-26T05:31:42.822Z,997.31
2022-07-26T05:32:42.766Z,997.32
2022-07-26T05:33:42.761Z,997.30
2022-07-26T05:34:42.764Z,997.35
2022-07-26T05:35:42.809Z,997.29
2022-07-26T05:36:43.708Z,997.35
2022-07-26T05:37:42.707Z,997.34
2022-07-26T05:38:42.696Z,997.29
2022-07-26T05:39:42.688Z,997.29
2022-07-26T05:40:47.215Z,997.29
2022-07-26T05:41:42.661Z,997.33
2022-07-26T05:42:42.666Z,997.34
2022-07-26T05:43:42.629Z,997.31
2022-07-26T05:44:42.938Z,997.33
2022-07-26T05:45:42.703Z,997.25
2022-07-26T05:46:42.631Z,997.23
2022-07-26T05:47:43.210Z,997.30
2022-07-26T05:48:42.664Z,997.22
2022-07-26T05:49:42.565Z,997.18
2022-07-26T05:50:42.569Z,997.21
2022-07-26T05:51:42.583Z,997.15
2022-07-26T05:52:42.529Z,997.12
2022-07-26T05:53:42.579Z,997.10
2022-07-26T05:54:42.505Z,997.07
2022-07-26T05:55:42.496Z,997.09
2022-07-26T05:56:42.486Z,997.07
2022-07-26T05:57:42.508Z,997.11
2022-07-26T05:58:43.236Z,997.13
2022-07-26T05:59:42.440Z,997.12
2022-07-26T06:00:46.778Z,997.12
2022-07-26T06:01:42.436Z,997.14
2022-07-26T06:02:42.532Z,997.12
2022-07-26T06:03:42.437Z,997.08
2022-07-26T06:04:42.541Z,997.21
2022-07-26T06:05:42.370Z,997.08
2022-07-26T06:06:42.376Z,997.06
2022-07-26T06:07:42.375Z,997.05
2022-07-26T06:08:42.374Z,997.02
2022-07-26T06:09:42.332Z,997.04
2022-07-26T06:10:42.313Z,997.02
2022-07-26T06:11:42.305Z,997.05
2022-07-26T06:12:42.311Z,997.04
2022-07-26T06:13:42.293Z,996.97
2022-07-26T06:14:42.289Z,996.96
2022-07-26T06:15:43.249Z,997.02
2022-07-26T06:16:42.307Z,997.01
2022-07-26T06:17:42.238Z,997.04
2022-07-26T06:18:42.244Z,996.98
2022-07-26T06:19:47.343Z,997.04
2022-07-26T06:20:42.242Z,997.03
2022-07-26T06:21:42.192Z,997.03
2022-07-26T06:22:42.177Z,997.02
2022-07-26T06:23:42.176Z,996.97
2022-07-26T06:24:42.183Z,996.94
2022-07-26T06:25:42.170Z,996.95
2022-07-26T06:26:42.172Z,996.99
2022-07-26T06:27:42.115Z,996.99
2022-07-26T06:28:42.112Z,997.05
2022-07-26T06:29:42.126Z,997.00
2022-07-26T06:30:42.106Z,996.98
2022-07-26T06:31:42.144Z,997.01
2022-07-26T06:32:42.751Z,997.02
2022-07-26T06:33:42.049Z,997.05
2022-07-26T06:34:42.044Z,997.01
2022-07-26T06:35:42.051Z,997.03
2022-07-26T06:36:42.044Z,997.01
2022-07-26T06:37:42.011Z,996.98
2022-07-26T06:38:41.992Z,996.97
2022-07-26T06:39:41.987Z,996.96
2022-07-26T06:40:41.989Z,996.96
2022-07-26T06:41:41.989Z,996.91
2022-07-26T06:42:41.946Z,996.87
2022-07-26T06:43:42.735Z,996.92
2022-07-26T06:44:41.923Z,996.92
2022-07-26T06:45:41.948Z,996.87
2022-07-26T06:46:41.920Z,996.88
2022-07-26T06:47:41.909Z,996.94
2022-07-26T06:48:47.470Z,996.94
2022-07-26T06:49:41.888Z,996.97
2022-07-26T06:50:41.852Z,996.96
2022-07-26T06:51:41.856Z,996.95
2022-07-26T06:52:41.863Z,996.91
2022-07-26T06:53:41.891Z,996.92
2022-07-26T06:54:42.741Z,996.96
2022-07-26T06:55:41.797Z,996.92
2022-07-26T06:56:41.788Z,996.91
2022-07-26T06:57:45.044Z,996.81
2022-07-26T06:58:41.786Z,996.86
2022-07-26T06:59:41.746Z,996.90
2022-07-26T07:00:41.860Z,996.85
2022-07-26T07:01:58.611Z,996.84
2022-07-26T07:02:41.722Z,996.77
2022-07-26T07:03:41.747Z,996.87
2022-07-26T07:04:41.762Z,996.80
2022-07-26T07:05:45.407Z,996.82
2022-07-26T07:06:41.665Z,996.86
2022-07-26T07:07:42.253Z,996.85
2022-07-26T07:08:41.662Z,996.85
2022-07-26T07:09:41.653Z,996.79
2022-07-26T07:10:41.624Z,996.83
2022-07-26T07:11:41.631Z,996.77
2022-07-26T07:12:41.595Z,996.75
2022-07-26T07:13:41.591Z,996.72
2022-07-26T07:14:41.682Z,996.75
2022-07-26T07:15:41.582Z,996.72
2022-07-26T07:16:41.660Z,996.69
2022-07-26T07:17:41.540Z,996.62
2022-07-26T07:18:41.533Z,996.53
2022-07-26T07:19:41.540Z,996.61
2022-07-26T07:20:41.516Z,996.48
2022-07-26T07:21:41.529Z,996.46
2022-07-26T07:22:42.270Z,996.39
2022-07-26T07:23:41.482Z,996.33
2022-07-26T07:24:41.485Z,996.37
2022-07-26T07:25:41.472Z,996.27
2022-07-26T07:26:41.474Z,996.27
2022-07-26T07:27:41.476Z,996.20
2022-07-26T07:28:42.277Z,996.24
2022-07-26T07:29:43.175Z,996.25
2022-07-26T07:30:41.409Z,996.15
2022-07-26T07:31:48.740Z,996.17
2022-07-26T07:32:41.451Z,996.20
2022-07-26T07:33:52.491Z,996.16
2022-07-26T07:34:42.274Z,996.24
2022-07-26T07:35:41.349Z,996.24
2022-07-26T07:36:41.343Z,996.12
2022-07-26T07:37:53.548Z,996.20
2022-07-26T07:38:42.919Z,996.18
2022-07-26T07:39:41.421Z,996.13
2022-07-26T07:40:42.287Z,996.17
2022-07-26T07:41:41.285Z,996.15
2022-07-26T07:42:41.281Z,996.17
2022-07-26T07:43:41.286Z,996.13
2022-07-26T07:44:41.280Z,996.13
2022-07-26T07:45:41.287Z,996.12
2022-07-26T07:46:41.343Z,996.12
2022-07-26T07:47:41.222Z,996.16
2022-07-26T07:48:47.101Z,996.17
2022-07-26T07:49:41.206Z,996.12
2022-07-26T07:50:41.228Z,996.09
2022-07-26T07:51:41.214Z,996.27
2022-07-26T07:52:41.234Z,996.01
2022-07-26T07:53:41.181Z,996.00
2022-07-26T07:54:41.154Z,996.01
2022-07-26T07:55:44.064Z,996.09
2022-07-26T07:56:41.156Z,996.05
2022-07-26T07:57:41.158Z,996.00
2022-07-26T07:58:41.106Z,996.03
2022-07-26T07:59:41.097Z,996.06
2022-07-26T08:00:41.138Z,996.01
2022-07-26T08:01:41.217Z,996.02
2022-07-26T08:02:41.100Z,996.08
2022-07-26T08:03:41.179Z,996.02
2022-07-26T08:04:41.170Z,996.06
2022-07-26T08:05:41.066Z,996.06
2022-07-26T08:06:41.420Z,996.03
2022-07-26T08:07:41.036Z,996.10
2022-07-26T08:08:41.035Z,996.07
2022-07-26T08:09:42.842Z,996.06
2022-07-26T08:10:43.656Z,996.03
2022-07-26T08:11:41.866Z,995.95
2022-07-26T08:12:40.970Z,995.94
2022-07-26T08:13:45.805Z,995.98
2022-07-26T08:14:41.519Z,995.92
2022-07-26T08:15:40.957Z,995.99
2022-07-26T08:16:41.828Z,995.95
2022-07-26T08:17:41.840Z,996.02
2022-07-26T08:18:55.647Z,996.01
2022-07-26T08:19:42.121Z,995.97
2022-07-26T08:20:40.910Z,995.94
2022-07-26T08:21:40.922Z,995.82
2022-07-26T08:22:40.920Z,995.89
2022-07-26T08:23:40.862Z,995.96
2022-07-26T08:24:40.855Z,995.88
2022-07-26T08:25:55.077Z,995.86
2022-07-26T08:26:40.858Z,996.02
2022-07-26T08:27:41.358Z,995.95
2022-07-26T08:28:48.521Z,996.01
2022-07-26T08:29:40.864Z,995.91
2022-07-26T08:30:40.800Z,995.93
2022-07-26T08:31:40.816Z,996.01
2022-07-26T08:32:40.782Z,996.02
2022-07-26T08:33:45.874Z,995.95
2022-07-26T08:34:40.796Z,995.98
2022-07-26T08:35:40.791Z,995.95
2022-07-26T08:36:54.802Z,995.96
2022-07-26T08:37:40.737Z,995.97
2022-07-26T08:38:40.719Z,995.90
2022-07-26T08:39:40.719Z,995.89
2022-07-26T08:40:40.733Z,995.90
2022-07-26T08:41:40.739Z,995.93
2022-07-26T08:42:40.682Z,995.94
2022-07-26T08:43:46.676Z,995.86
2022-07-26T08:44:40.672Z,995.94
2022-07-26T08:45:40.679Z,995.82
2022-07-26T08:46:40.712Z,995.85
2022-07-26T08:48:00.829Z,995.90
2022-07-26T08:48:40.639Z,995.88
2022-07-26T08:49:40.612Z,995.90
2022-07-26T08:50:40.610Z,995.86
2022-07-26T08:51:40.614Z,995.91
2022-07-26T08:52:40.614Z,995.90
2022-07-26T08:53:41.336Z,995.84
2022-07-26T08:54:40.558Z,995.88
2022-07-26T08:56:08.035Z,995.88
2022-07-26T08:56:40.548Z,995.85
2022-07-26T08:57:40.538Z,995.89
2022-07-26T08:58:40.552Z,995.89
2022-07-26T08:59:40.560Z,995.85
2022-07-26T09:00:40.556Z,995.82
2022-07-26T09:01:40.496Z,995.88
2022-07-26T09:02:40.503Z,995.88
2022-07-26T09:03:40.539Z,995.87
2022-07-26T09:04:44.205Z,995.91
2022-07-26T09:05:40.454Z,995.82
2022-07-26T09:06:40.485Z,995.92
2022-07-26T09:07:40.442Z,995.91
2022-07-26T09:08:40.430Z,995.90
2022-07-26T09:09:40.435Z,995.94
2022-07-26T09:10:40.430Z,995.93
2022-07-26T09:11:40.435Z,995.95
2022-07-26T09:12:40.395Z,995.99
2022-07-26T09:13:40.378Z,995.88
2022-07-26T09:14:40.373Z,995.93
2022-07-26T09:15:40.356Z,995.93
2022-07-26T09:16:40.429Z,995.92
2022-07-26T09:17:40.360Z,995.88
2022-07-26T09:18:40.846Z,995.96
2022-07-26T09:19:40.316Z,995.87
2022-07-26T09:20:40.309Z,995.94
2022-07-26T09:21:40.320Z,995.96
2022-07-26T09:22:40.308Z,995.93
2022-07-26T09:23:40.302Z,995.91
2022-07-26T09:24:40.845Z,995.89
2022-07-26T09:25:40.318Z,995.89
2022-07-26T09:26:40.244Z,995.94
2022-07-26T09:27:40.250Z,995.94
2022-07-26T09:28:45.099Z,995.92
2022-07-26T09:29:40.242Z,995.85
2022-07-26T09:30:40.207Z,995.89
2022-07-26T09:31:40.280Z,995.86
2022-07-26T09:32:40.190Z,995.90
2022-07-26T09:33:40.171Z,995.84
2022-07-26T09:34:51.773Z,995.78
2022-07-26T09:35:50.364Z,995.78
2022-07-26T09:36:40.148Z,995.76
2022-07-26T09:37:40.126Z,995.84
2022-07-26T09:38:40.120Z,995.79
2022-07-26T09:39:40.119Z,995.79
2022-07-26T09:40:40.111Z,995.80
2022-07-26T09:41:40.080Z,995.84
2022-07-26T09:42:40.068Z,995.75
2022-07-26T09:43:40.056Z,995.80
2022-07-26T09:44:47.894Z,995.83
2022-07-26T09:45:40.065Z,995.89
2022-07-26T09:46:40.170Z,995.86
2022-07-26T09:47:40.054Z,995.87
2022-07-26T09:49:40.669Z,995.88
2022-07-26T09:50:39.979Z,995.89
2022-07-26T09:51:40.005Z,995.91
2022-07-26T09:52:39.957Z,995.87
2022-07-26T09:53:39.957Z,995.92
2022-07-26T09:54:39.928Z,995.93
2022-07-26T09:55:44.805Z,995.96
2022-07-26T09:56:39.932Z,995.97
2022-07-26T09:57:40.866Z,995.93
2022-07-26T09:58:39.890Z,995.96
2022-07-26T09:59:39.880Z,996.01
2022-07-26T10:00:39.866Z,996.00
2022-07-26T10:01:39.894Z,996.02
2022-07-26T10:02:39.912Z,995.99
2022-07-26T10:03:39.853Z,996.05
2022-07-26T10:04:40.789Z,995.99
2022-07-26T10:05:39.808Z,995.97
2022-07-26T10:06:39.809Z,996.02
2022-07-26T10:07:39.786Z,995.96
2022-07-26T10:08:39.783Z,996.03
2022-07-26T10:09:39.760Z,996.00
2022-07-26T10:10:39.751Z,995.96
2022-07-26T10:11:39.738Z,995.97
2022-07-26T10:12:39.734Z,996.01
2022-07-26T10:13:39.759Z,996.01
2022-07-26T10:14:39.746Z,996.02
2022-07-26T10:15:40.462Z,996.03
2022-07-26T10:16:39.676Z,996.07
2022-07-26T10:17:39.682Z,996.07
2022-07-26T10:18:40.754Z,996.04
2022-07-26T10:19:41.790Z,996.06
2022-07-26T10:20:40.223Z,996.08
2022-07-26T10:21:39.637Z,996.08
2022-07-26T10:22:39.616Z,996.03
2022-07-26T10:23:39.604Z,996.05
2022-07-26T10:24:39.617Z,996.04
2022-07-26T10:25:39.608Z,996.04
2022-07-26T10:26:39.566Z,996.06
2022-07-26T10:27:39.552Z,996.08
2022-07-26T10:28:39.543Z,996.05
2022-07-26T10:29:39.549Z,996.02
2022-07-26T10:30:39.545Z,996.01
2022-07-26T10:31:39.593Z,996.04
2022-07-26T10:32:40.392Z,996.05
2022-07-26T10:33:39.481Z,996.02
2022-07-26T10:34:39.487Z,996.06
2022-07-26T10:35:39.477Z,996.08
2022-07-26T10:36:39.461Z,996.12
2022-07-26T10:37:39.439Z,996.10
2022-07-26T10:38:39.445Z,996.04
2022-07-26T10:39:39.435Z,996.02
2022-07-26T10:40:39.416Z,996.06
2022-07-26T10:41:39.426Z,996.09
2022-07-26T10:42:39.411Z,996.08
2022-07-26T10:43:41.493Z,996.15
2022-07-26T10:44:39.350Z,996.08
2022-07-26T10:45:39.354Z,996.08
2022-07-26T10:46:39.485Z,996.06
2022-07-26T10:47:39.349Z,995.99
2022-07-26T10:48:39.340Z,995.99
2022-07-26T10:49:39.298Z,996.02
2022-07-26T10:50:39.286Z,996.09
2022-07-26T10:51:39.292Z,996.07
2022-07-26T10:52:39.291Z,996.12
2022-07-26T10:53:39.288Z,996.05
2022-07-26T10:54:39.913Z,996.11
2022-07-26T10:55:39.224Z,996.09
2022-07-26T10:56:39.221Z,996.07
2022-07-26T10:57:39.204Z,996.05
2022-07-26T10:58:39.227Z,996.05
2022-07-26T10:59:55.207Z,996.05
2022-07-26T11:00:39.163Z,996.03
2022-07-26T11:01:39.203Z,996.03
2022-07-26T11:02:39.219Z,996.01
2022-07-26T11:03:39.244Z,995.95
2022-07-26T11:04:39.115Z,995.87
2022-07-26T11:05:39.894Z,995.86
2022-07-26T11:06:39.101Z,995.84
2022-07-26T11:07:39.092Z,995.86
2022-07-26T11:08:39.093Z,995.87
2022-07-26T11:09:39.092Z,995.91
2022-07-26T11:10:39.045Z,995.92
2022-07-26T11:11:39.091Z,995.92
2022-07-26T11:12:39.039Z,995.88
2022-07-26T11:13:39.024Z,995.84
2022-07-26T11:14:39.011Z,995.82
2022-07-26T11:15:39.060Z,995.82
2022-07-26T11:16:39.917Z,995.79
2022-07-26T11:17:38.961Z,995.79
2022-07-26T11:18:38.971Z,995.79
2022-07-26T11:19:38.948Z,995.79
2022-07-26T11:20:38.959Z,995.74
2022-07-26T11:21:38.914Z,995.74
2022-07-26T11:22:38.916Z,995.69
2022-07-26T11:23:38.887Z,995.71
2022-07-26T11:24:38.890Z,995.73
2022-07-26T11:25:38.899Z,995.75
2022-07-26T11:26:38.890Z,995.75
2022-07-26T11:27:38.859Z,995.75
2022-07-26T11:28:38.829Z,995.74
2022-07-26T11:29:41.264Z,995.68
2022-07-26T11:30:38.828Z,995.68
2022-07-26T11:31:51.594Z,995.72
2022-07-26T11:32:39.590Z,995.66
2022-07-26T11:33:38.775Z,995.71
2022-07-26T11:34:38.767Z,995.73
2022-07-26T11:35:38.768Z,995.69
2022-07-26T11:36:38.766Z,995.70
2022-07-26T11:37:38.718Z,995.68
2022-07-26T11:38:38.710Z,995.70
2022-07-26T11:39:38.712Z,995.68
2022-07-26T11:40:38.694Z,995.70
2022-07-26T11:41:38.705Z,995.77
2022-07-26T11:42:38.683Z,995.73
2022-07-26T11:43:38.656Z,995.76
2022-07-26T11:44:38.635Z,995.75
2022-07-26T11:45:38.628Z,995.75
2022-07-26T11:46:38.798Z,995.70
2022-07-26T11:47:38.628Z,995.68
2022-07-26T11:48:41.494Z,995.67
2022-07-26T11:50:00.838Z,995.67
2022-07-26T11:50:38.557Z,995.64
2022-07-26T11:51:38.572Z,995.69
2022-07-26T11:52:38.553Z,995.67
2022-07-26T11:53:38.526Z,995.70
2022-07-26T11:54:38.508Z,995.63
2022-07-26T11:55:39.463Z,995.65
2022-07-26T11:56:38.488Z,995.63
2022-07-26T11:57:38.529Z,995.64
2022-07-26T11:58:38.486Z,995.64
2022-07-26T11:59:38.456Z,995.65
2022-07-26T12:00:38.434Z,995.71
2022-07-26T12:01:38.424Z,995.69
2022-07-26T12:02:38.443Z,995.72
2022-07-26T12:03:38.463Z,995.69
2022-07-26T12:04:39.067Z,995.73
2022-07-26T12:05:38.438Z,995.70
2022-07-26T12:06:38.358Z,995.73
2022-07-26T12:07:38.347Z,995.75
2022-07-26T12:08:38.369Z,995.69
2022-07-26T12:09:38.326Z,995.69
2022-07-26T12:10:38.311Z,995.69
2022-07-26T12:11:38.303Z,995.65
2022-07-26T12:12:38.305Z,995.70
2022-07-26T12:13:39.873Z,995.73
2022-07-26T12:14:38.258Z,995.74
2022-07-26T12:15:38.311Z,995.70
2022-07-26T12:16:38.236Z,995.68
2022-07-26T12:17:38.225Z,995.72
2022-07-26T12:18:38.214Z,995.74
2022-07-26T12:19:38.209Z,995.68
2022-07-26T12:20:38.234Z,995.66
2022-07-26T12:21:38.167Z,995.74
2022-07-26T12:22:38.157Z,995.71
2022-07-26T12:23:38.154Z,995.70
2022-07-26T12:24:38.152Z,995.74
2022-07-26T12:25:38.154Z,995.71
2022-07-26T12:26:38.116Z,995.75
2022-07-26T12:27:38.177Z,995.78
2022-07-26T12:28:38.120Z,995.72
2022-07-26T12:29:38.752Z,995.74